Erie, Pennsylvania
Current Conditions -  °F | °C
As of 2:51 AM on Friday 24 Oct 2014 (Local Time) from KERI Reporting Station
Clear Clear  
Wind Chill: 44°   Ceiling: Unl
Heat Index: 44°   Visibility: 10mi
Dew Point: 41°   Wind: 3mph
Humidity: 89%   Direction: 210°SSW
Pressure: 30.07"   Gusts: NA
Location:  42.13°N, 80.08°W
Report Text: KERI 240651Z AUTO 21003KT 10SM CLR 07/05 A3007 RMK AO2 SLP185 T00670050
Loading
Personal Weather Stations






























Interactive Weather Map New forecast layout! Learn more

10-Day Weather Forecast

Advertisements
Track Severe Weather on mobile